Time;durP1;ratioP1;P1;durP2;ratioP2;P2;SDS_P1;SDS_P2;PMS_P1;PMS_P2;Temp;Humidity;BMP_temperature;BMP_pressure;BME280_temperature;BME280_humidity;BME280_pressure;Samples;Min_cycle;Max_cycle;Signal;HPM_P1;HPM_P2
2023/01/13 00:00:46;;;;;;;43.63;22.83;;;4.90;99.90;;;;;;4231816;28;20028;-63
2023/01/13 00:02:47;;;;;;;42.77;21.97;;;4.80;99.90;;;;;;4232699;28;20040;-62
2023/01/13 00:04:49;;;;;;;39.10;19.90;;;4.80;99.90;;;;;;4232171;28;20035;-63
2023/01/13 00:06:50;;;;;;;38.43;21.27;;;4.70;99.90;;;;;;4233230;28;20039;-62
2023/01/13 00:08:52;;;;;;;34.63;19.70;;;4.70;99.90;;;;;;4232319;28;20580;-64
2023/01/13 00:10:53;;;;;;;40.53;20.70;;;4.70;99.90;;;;;;4231850;28;20136;-64
2023/01/13 00:12:54;;;;;;;38.73;20.50;;;4.70;99.90;;;;;;4232454;28;20437;-65
2023/01/13 00:14:55;;;;;;;34.57;18.97;;;4.70;99.90;;;;;;4232352;28;20581;-64
2023/01/13 00:16:56;;;;;;;38.70;19.60;;;4.70;99.90;;;;;;4230528;28;20016;-69
2023/01/13 00:18:57;;;;;;;33.93;18.87;;;4.70;99.90;;;;;;4229378;28;20032;-65
2023/01/13 00:21:04;;;;;;;34.67;19.50;;;4.70;99.90;;;;;;4230348;28;20043;-63
2023/01/13 00:23:06;;;;;;;37.87;18.83;;;4.70;99.90;;;;;;4229265;28;20039;-62
2023/01/13 00:25:07;;;;;;;31.77;18.00;;;4.70;99.90;;;;;;4230159;28;20078;-63
2023/01/13 00:27:08;;;;;;;36.10;19.30;;;4.70;99.90;;;;;;4227744;28;20552;-67
2023/01/13 00:29:09;;;;;;;33.00;18.33;;;4.70;99.90;;;;;;4230422;28;20073;-62
2023/01/13 00:31:16;;;;;;;39.07;19.17;;;4.70;99.90;;;;;;4228920;28;20907;-63
2023/01/13 00:33:18;;;;;;;35.50;19.80;;;4.60;99.90;;;;;;4229871;28;20100;-63
2023/01/13 00:35:19;;;;;;;36.03;19.07;;;4.60;99.90;;;;;;4228842;28;20059;-63
2023/01/13 00:37:20;;;;;;;37.87;20.37;;;4.60;99.90;;;;;;4230310;28;20043;-62
2023/01/13 00:39:21;;;;;;;38.87;21.17;;;4.60;99.90;;;;;;4229329;28;20031;-63
2023/01/13 00:41:24;;;;;;;33.43;18.87;;;4.60;99.90;;;;;;4230117;28;20675;-63
2023/01/13 00:43:27;;;;;;;30.73;18.00;;;4.60;99.90;;;;;;4227541;28;20035;-62
2023/01/13 00:45:28;;;;;;;36.03;18.37;;;4.60;99.90;;;;;;4228125;28;20032;-62
2023/01/13 00:47:30;;;;;;;34.53;18.77;;;4.60;99.90;;;;;;4229274;28;20031;-65
2023/01/13 00:49:31;;;;;;;32.97;18.27;;;4.60;99.90;;;;;;4229460;28;20031;-63
2023/01/13 00:51:32;;;;;;;35.43;19.57;;;4.60;99.90;;;;;;4229515;28;20050;-62
2023/01/13 00:53:36;;;;;;;35.97;18.93;;;4.60;99.90;;;;;;4228857;28;20295;-63
2023/01/13 00:55:37;;;;;;;37.57;19.93;;;4.60;99.90;;;;;;4230158;28;20077;-61
2023/01/13 00:57:38;;;;;;;32.37;18.53;;;4.60;99.90;;;;;;4228978;28;20039;-63
2023/01/13 00:59:40;;;;;;;37.93;19.73;;;4.60;99.90;;;;;;4229855;28;20035;-64
2023/01/13 01:01:41;;;;;;;39.03;20.77;;;4.60;99.90;;;;;;4228782;28;20024;-67
2023/01/13 01:03:42;;;;;;;37.40;20.13;;;4.60;99.90;;;;;;4229251;28;20480;-62
2023/01/13 01:05:43;;;;;;;42.53;21.17;;;4.50;99.90;;;;;;4228944;28;20028;-67
2023/01/13 01:07:44;;;;;;;37.13;21.63;;;4.50;99.90;;;;;;4229566;28;20479;-64
2023/01/13 01:09:45;;;;;;;36.20;19.90;;;4.40;99.90;;;;;;4228787;28;20028;-66
2023/01/13 01:11:47;;;;;;;38.60;20.50;;;4.40;99.90;;;;;;4230080;28;20036;-66
2023/01/13 01:13:51;;;;;;;40.10;20.13;;;4.50;99.90;;;;;;4228697;28;20043;-69
2023/01/13 01:15:52;;;;;;;35.23;19.40;;;4.50;99.90;;;;;;4229212;28;20492;-64
2023/01/13 01:17:53;;;;;;;36.00;20.23;;;4.40;99.90;;;;;;4228613;28;20036;-63
2023/01/13 01:19:54;;;;;;;33.97;18.70;;;4.40;99.90;;;;;;4228996;28;20426;-63
2023/01/13 01:21:55;;;;;;;46.33;20.60;;;4.30;99.90;;;;;;4229169;28;20276;-68
2023/01/13 01:23:59;;;;;;;39.10;19.80;;;4.40;99.90;;;;;;4228627;28;20061;-63
2023/01/13 01:26:10;;;;;;;34.03;18.97;;;4.30;99.90;;;;;;4229389;28;20325;-63
2023/01/13 01:28:11;;;;;;;36.80;19.30;;;4.30;99.90;;;;;;4227167;28;20475;-68
2023/01/13 01:30:13;;;;;;;36.57;18.30;;;4.30;99.90;;;;;;4228462;28;20267;-63
2023/01/13 01:32:14;;;;;;;44.73;22.27;;;4.20;99.90;;;;;;4228181;28;20299;-64
2023/01/13 01:34:15;;;;;;;40.93;21.73;;;4.20;99.90;;;;;;4229353;28;20317;-63
2023/01/13 01:36:18;;;;;;;33.03;18.37;;;4.20;99.90;;;;;;4228264;28;20329;-63
2023/01/13 01:38:22;;;;;;;42.77;22.03;;;4.20;99.90;;;;;;4229112;28;20085;-64
2023/01/13 01:40:25;;;;;;;38.80;21.77;;;4.20;99.90;;;;;;4228236;28;20057;-64
2023/01/13 01:44:52;;;;;;;39.00;21.23;;;4.20;99.90;;;;;;4227969;28;20329;-64
2023/01/13 01:46:55;;;;;;;39.63;19.90;;;4.30;99.90;;;;;;4229114;28;20280;-63
2023/01/13 01:49:20;;;;;;;40.40;21.73;;;4.30;99.90;;;;;;4228010;28;20123;-63
2023/01/13 01:51:21;;;;;;;38.63;21.13;;;4.20;99.90;;;;;;4227128;28;20047;-66
2023/01/13 01:53:25;;;;;;;38.63;20.70;;;4.20;99.90;;;;;;4227114;28;20039;-63
2023/01/13 01:55:29;;;;;;;36.37;20.77;;;4.20;99.90;;;;;;4229361;28;20023;-66
2023/01/13 01:57:42;;;;;;;32.93;18.87;;;4.20;99.90;;;;;;4228351;28;20364;-68
2023/01/13 01:59:44;;;;;;;33.83;18.13;;;4.30;99.90;;;;;;4228759;28;20329;-62
2023/01/13 02:01:46;;;;;;;36.67;20.43;;;4.20;99.90;;;;;;4227920;28;20101;-63
2023/01/13 02:04:04;;;;;;;31.77;17.43;;;4.20;99.90;;;;;;4228916;28;20256;-64
2023/01/13 02:06:07;;;;;;;34.70;19.20;;;4.20;99.90;;;;;;4228030;28;20301;-63
2023/01/13 02:08:10;;;;;;;32.47;18.43;;;4.20;99.90;;;;;;4229027;28;20276;-63
2023/01/13 02:10:15;;;;;;;34.37;19.43;;;4.20;99.90;;;;;;4227205;28;20256;-62
2023/01/13 02:12:29;;;;;;;33.13;18.67;;;4.20;99.90;;;;;;4228434;28;20357;-62
2023/01/13 02:14:32;;;;;;;31.60;17.10;;;4.20;99.90;;;;;;4220518;28;20084;-65
2023/01/13 02:16:34;;;;;;;32.80;16.60;;;4.20;99.90;;;;;;4227189;28;20817;-68
2023/01/13 02:18:38;;;;;;;33.93;17.97;;;4.20;99.90;;;;;;4227810;28;20665;-63
2023/01/13 02:20:57;;;;;;;34.83;18.50;;;4.20;99.90;;;;;;4228085;28;20027;-66
2023/01/13 02:24:52;;;;;;;34.13;18.43;;;4.30;99.90;;;;;;4227464;28;20027;-63
2023/01/13 02:26:09;;;;;;;46.27;21.00;;;4.30;99.90;;;;;;4228508;28;20324;-63
2023/01/13 02:31:40;;;;;;;43.23;19.50;;;4.30;99.90;;;;;;4198468;28;20044;-63
2023/01/13 02:33:35;;;;;;;28.07;15.17;;;4.30;99.90;;;;;;4228114;28;20332;-62
2023/01/13 02:35:48;;;;;;;32.80;16.43;;;4.30;99.90;;;;;;4227577;28;20076;-62
2023/01/13 02:37:50;;;;;;;28.13;15.30;;;4.30;99.90;;;;;;4227636;28;20740;-63
2023/01/13 02:40:01;;;;;;;31.10;16.93;;;4.30;99.90;;;;;;4226582;28;20804;-63
2023/01/13 02:44:52;;;;;;;37.07;18.70;;;4.20;99.90;;;;;;4220572;28;20429;-64
2023/01/13 02:47:25;;;;;;;40.90;19.77;;;4.10;99.90;;;;;;4228473;28;20264;-67
2023/01/13 02:49:36;;;;;;;40.97;19.07;;;4.10;99.90;;;;;;4218886;28;20268;-65
2023/01/13 02:51:39;;;;;;;43.78;20.33;;;4.00;99.90;;;;;;4228202;28;20268;-62
2023/01/13 02:53:54;;;;;;;37.50;21.40;;;4.00;99.90;;;;;;4226952;28;20040;-63
2023/01/13 02:55:57;;;;;;;42.80;22.93;;;3.90;99.90;;;;;;4228189;28;20677;-63
2023/01/13 02:58:00;;;;;;;40.87;22.50;;;3.90;99.90;;;;;;4226806;28;20271;-63
2023/01/13 03:00:05;;;;;;;40.43;21.80;;;3.90;99.90;;;;;;4227883;28;20325;-64
2023/01/13 03:02:09;;;;;;;41.67;22.17;;;3.90;99.90;;;;;;4224579;28;20265;-63
2023/01/13 03:04:34;;;;;;;43.73;22.90;;;3.80;99.90;;;;;;4227936;28;20288;-63
2023/01/13 03:07:00;;;;;;;46.93;23.07;;;3.80;99.90;;;;;;4226208;28;20662;-63
2023/01/13 03:09:28;;;;;;;47.63;24.73;;;3.70;99.90;;;;;;4228330;28;20249;-65
2023/01/13 03:11:38;;;;;;;42.13;23.30;;;3.70;99.90;;;;;;4226581;28;21437;-63
2023/01/13 03:13:45;;;;;;;43.20;22.60;;;3.70;99.90;;;;;;4226946;28;20296;-64
2023/01/13 03:16:19;;;;;;;40.00;21.30;;;3.60;99.90;;;;;;4225281;28;20101;-63
2023/01/13 03:18:32;;;;;;;45.63;23.03;;;3.60;99.90;;;;;;4228141;28;20276;-63
2023/01/13 03:20:38;;;;;;;44.33;21.73;;;3.60;99.90;;;;;;4226796;28;20280;-64
2023/01/13 03:22:43;;;;;;;40.67;22.53;;;3.60;99.90;;;;;;4228021;28;20268;-63
2023/01/13 03:25:05;;;;;;;42.73;24.17;;;3.70;99.90;;;;;;4226531;28;20280;-63
2023/01/13 03:27:10;;;;;;;51.97;24.67;;;3.70;99.90;;;;;;4227918;28;20264;-63
2023/01/13 03:29:25;;;;;;;45.37;24.07;;;3.70;99.90;;;;;;4226610;28;20275;-64
2023/01/13 03:31:30;;;;;;;45.33;24.20;;;3.60;99.90;;;;;;4227013;28;20321;-64
2023/01/13 03:33:36;;;;;;;47.60;25.27;;;3.70;99.90;;;;;;4226555;28;20352;-63
2023/01/13 03:35:42;;;;;;;45.13;24.10;;;3.70;99.90;;;;;;4227496;28;20292;-64
2023/01/13 03:37:48;;;;;;;43.50;24.13;;;3.80;99.90;;;;;;4227000;28;20598;-64
2023/01/13 03:39:58;;;;;;;43.17;23.03;;;3.80;99.90;;;;;;4227698;28;20287;-68
2023/01/13 03:42:14;;;;;;;43.77;23.03;;;3.90;99.90;;;;;;4226759;28;20324;-64
2023/01/13 03:44:21;;;;;;;42.70;24.23;;;4.00;99.90;;;;;;4223889;28;20687;-63
2023/01/13 03:46:30;;;;;;;48.03;23.40;;;4.00;99.90;;;;;;4226513;28;20291;-64
2023/01/13 03:48:34;;;;;;;43.57;23.60;;;4.00;99.90;;;;;;4227837;28;20280;-63
2023/01/13 03:50:44;;;;;;;45.10;23.37;;;4.00;99.90;;;;;;4226204;28;20332;-63
2023/01/13 03:53:01;;;;;;;41.90;22.50;;;4.00;99.90;;;;;;4229233;28;20296;-63
2023/01/13 03:55:15;;;;;;;41.13;21.97;;;4.10;99.90;;;;;;4229908;28;20468;-64
2023/01/13 03:57:18;;;;;;;38.13;20.90;;;4.10;99.90;;;;;;4231295;28;20271;-63
2023/01/13 03:59:24;;;;;;;47.13;23.27;;;4.10;99.90;;;;;;4229469;28;20679;-62
2023/01/13 04:01:50;;;;;;;47.03;22.60;;;4.10;99.90;;;;;;4228957;28;20089;-63
2023/01/13 04:04:04;;;;;;;46.27;23.63;;;4.10;99.90;;;;;;4229592;28;20023;-62
2023/01/13 04:06:16;;;;;;;43.10;22.77;;;4.10;99.90;;;;;;4230569;28;20789;-63
2023/01/13 04:08:24;;;;;;;40.53;21.73;;;4.10;99.90;;;;;;4230026;28;20016;-62
2023/01/13 04:10:31;;;;;;;38.80;21.33;;;4.20;99.90;;;;;;4230214;28;20328;-63
2023/01/13 04:13:00;;;;;;;36.23;20.60;;;4.20;99.90;;;;;;4229533;28;20031;-63
2023/01/13 04:15:01;;;;;;;34.73;19.73;;;4.20;99.90;;;;;;4228322;28;20272;-64
2023/01/13 04:17:03;;;;;;;39.03;20.03;;;4.20;99.90;;;;;;4229581;28;20028;-67
2023/01/13 04:19:05;;;;;;;39.30;20.43;;;4.20;99.90;;;;;;4230284;28;20065;-66
2023/01/13 04:21:07;;;;;;;36.47;20.63;;;4.20;99.90;;;;;;4229654;28;20954;-64
2023/01/13 04:23:09;;;;;;;39.57;21.27;;;4.20;99.90;;;;;;4230554;28;20268;-62
2023/01/13 04:25:10;;;;;;;43.93;21.20;;;4.10;99.90;;;;;;4228754;28;20325;-62
2023/01/13 04:27:11;;;;;;;33.03;19.70;;;4.10;99.90;;;;;;4230779;28;20085;-61
2023/01/13 04:29:12;;;;;;;40.13;19.90;;;4.10;99.90;;;;;;4229502;28;20074;-63
2023/01/13 04:31:13;;;;;;;38.80;21.37;;;4.20;99.90;;;;;;4229907;28;20810;-63
2023/01/13 04:33:16;;;;;;;39.53;21.30;;;4.20;99.90;;;;;;4228093;28;20291;-64
2023/01/13 04:35:17;;;;;;;38.53;21.63;;;4.20;99.90;;;;;;4230227;28;20296;-63
2023/01/13 04:37:18;;;;;;;44.07;21.83;;;4.20;99.90;;;;;;4229255;28;20357;-62
2023/01/13 04:39:19;;;;;;;40.17;21.53;;;4.20;99.90;;;;;;4229797;28;20329;-63
2023/01/13 04:41:21;;;;;;;41.67;21.03;;;4.20;99.90;;;;;;4228801;28;20541;-63
2023/01/13 04:43:22;;;;;;;40.50;21.43;;;4.20;99.90;;;;;;4229661;28;20248;-65
2023/01/13 04:45:23;;;;;;;40.47;20.33;;;4.30;99.90;;;;;;4227314;28;20373;-66
2023/01/13 04:47:24;;;;;;;38.07;20.83;;;4.30;99.90;;;;;;4229224;28;20035;-64
2023/01/13 04:49:26;;;;;;;38.60;21.33;;;4.20;99.90;;;;;;4227793;28;20039;-66
2023/01/13 04:51:27;;;;;;;43.20;21.97;;;4.20;99.90;;;;;;4229074;28;20604;-62
2023/01/13 04:53:28;;;;;;;43.03;20.73;;;4.20;99.90;;;;;;4229843;28;20296;-63
2023/01/13 04:55:30;;;;;;;36.73;20.40;;;4.20;99.90;;;;;;4227908;28;20324;-63
2023/01/13 04:57:33;;;;;;;40.40;21.50;;;4.20;99.90;;;;;;4229941;28;20024;-63
2023/01/13 04:59:34;;;;;;;36.97;20.23;;;4.20;99.90;;;;;;4228046;28;20345;-65
2023/01/13 05:01:36;;;;;;;40.40;21.50;;;4.20;99.90;;;;;;4229108;28;20369;-64
2023/01/13 05:03:38;;;;;;;43.03;22.40;;;4.20;99.90;;;;;;4227661;28;20330;-63
2023/01/13 05:05:39;;;;;;;44.43;22.77;;;4.30;99.90;;;;;;4229390;28;20475;-63
2023/01/13 05:07:40;;;;;;;45.07;21.77;;;4.30;99.90;;;;;;4228592;28;20080;-63
2023/01/13 05:09:41;;;;;;;40.10;22.53;;;4.30;99.90;;;;;;4228397;28;20072;-66
2023/01/13 05:18:41;;;;;;;40.93;22.60;;;4.30;99.90;;;;;;4229244;28;20345;-64
2023/01/13 05:20:42;;;;;;;44.97;22.87;;;4.30;99.90;;;;;;4227580;28;20329;-63
2023/01/13 05:25:21;;;;;;;42.07;22.77;;;4.30;99.90;;;;;;4228236;28;20305;-63
2023/01/13 05:27:22;;;;;;;42.77;22.90;;;4.30;99.90;;;;;;4229643;28;21119;-67
2023/01/13 05:29:24;;;;;;;41.87;22.03;;;4.30;99.90;;;;;;4227905;28;20085;-63
2023/01/13 05:31:25;;;;;;;46.30;24.17;;;4.30;99.90;;;;;;4228995;28;20019;-62
2023/01/13 05:33:26;;;;;;;42.87;21.13;;;4.30;99.90;;;;;;4224703;28;20031;-64
2023/01/13 05:35:28;;;;;;;49.67;22.90;;;4.30;99.90;;;;;;4225593;28;20643;-65
2023/01/13 05:37:29;;;;;;;37.40;20.57;;;4.30;99.90;;;;;;4227592;28;20298;-64
2023/01/13 05:43:18;;;;;;;47.40;23.83;;;4.30;99.90;;;;;;4228423;28;20032;-63
2023/01/13 05:44:11;;;;;;;43.53;22.40;;;4.40;99.90;;;;;;4229088;28;20101;-65
2023/01/13 05:46:12;;;;;;;38.37;21.03;;;4.30;99.90;;;;;;4227420;28;20488;-64
2023/01/13 05:48:13;;;;;;;43.27;21.27;;;4.30;99.90;;;;;;4227862;28;20285;-66
2023/01/13 05:50:15;;;;;;;35.60;19.90;;;4.30;99.90;;;;;;4235579;27;20035;-64
2023/01/13 05:52:16;;;;;;;45.70;21.57;;;4.40;99.90;;;;;;4228439;28;20105;-63
2023/01/13 05:54:17;;;;;;;46.27;22.93;;;4.40;99.90;;;;;;4228225;28;20101;-62
2023/01/13 05:56:18;;;;;;;43.73;22.60;;;4.40;99.90;;;;;;4226917;28;20036;-62
2023/01/13 05:58:23;;;;;;;42.80;22.13;;;4.40;99.90;;;;;;4228763;28;20040;-62
2023/01/13 06:00:24;;;;;;;43.60;20.50;;;4.40;99.90;;;;;;4226584;28;20044;-62
2023/01/13 06:02:25;;;;;;;45.47;22.60;;;4.40;99.90;;;;;;4228391;28;20019;-66
2023/01/13 06:04:26;;;;;;;42.27;21.73;;;4.50;99.90;;;;;;4227351;28;21054;-62
2023/01/13 06:06:27;;;;;;;39.60;20.60;;;4.50;99.90;;;;;;4228545;28;20024;-62
2023/01/13 06:08:30;;;;;;;39.30;21.50;;;4.50;99.90;;;;;;4227556;28;20027;-63
2023/01/13 06:10:32;;;;;;;40.43;20.87;;;4.50;99.90;;;;;;4228795;28;20031;-62
2023/01/13 06:12:33;;;;;;;47.43;20.90;;;4.50;99.90;;;;;;4227279;28;20035;-62
2023/01/13 06:14:40;;;;;;;46.73;20.07;;;4.50;99.90;;;;;;4227742;28;20655;-65
2023/01/13 06:16:41;;;;;;;40.77;20.43;;;4.50;99.90;;;;;;4227352;28;20256;-63
2023/01/13 06:18:42;;;;;;;36.63;19.87;;;4.50;99.90;;;;;;4228345;28;20263;-64
2023/01/13 06:20:45;;;;;;;36.23;18.23;;;4.50;99.90;;;;;;4227538;28;20089;-66
2023/01/13 06:22:49;;;;;;;36.07;17.53;;;4.50;99.90;;;;;;4227912;28;20422;-65
2023/01/13 06:24:54;;;;;;;36.20;19.07;;;4.60;99.90;;;;;;4227376;28;20053;-62
2023/01/13 06:26:56;;;;;;;38.20;19.87;;;4.60;99.90;;;;;;4227533;28;20016;-63
2023/01/13 06:28:57;;;;;;;32.03;17.97;;;4.60;99.90;;;;;;4227960;28;20443;-63
2023/01/13 06:31:02;;;;;;;38.77;18.77;;;4.60;99.90;;;;;;4227037;28;20081;-69
2023/01/13 06:33:09;;;;;;;38.70;19.00;;;4.60;99.90;;;;;;4227961;28;20023;-63
2023/01/13 06:35:14;;;;;;;30.93;16.67;;;4.70;99.90;;;;;;4226664;28;20342;-62
2023/01/13 06:37:20;;;;;;;36.87;17.87;;;4.70;99.90;;;;;;4228166;28;20545;-66
2023/01/13 06:39:25;;;;;;;34.90;19.97;;;4.70;99.90;;;;;;4226901;28;20032;-64
2023/01/13 06:43:47;;;;;;;36.53;18.43;;;4.60;99.90;;;;;;4226916;28;20536;-64
2023/01/13 06:45:51;;;;;;;31.83;17.77;;;4.60;99.90;;;;;;4227825;28;20036;-62
2023/01/13 06:47:53;;;;;;;34.33;18.00;;;4.70;99.90;;;;;;4226842;28;20076;-64
2023/01/13 06:49:54;;;;;;;33.70;18.10;;;4.60;99.90;;;;;;4228138;28;20061;-64
2023/01/13 06:51:55;;;;;;;40.30;22.17;;;4.70;99.90;;;;;;4226771;28;20084;-62
2023/01/13 06:53:56;;;;;;;38.23;21.87;;;4.70;99.90;;;;;;4227941;28;20043;-64
2023/01/13 06:55:58;;;;;;;37.63;21.13;;;4.60;99.90;;;;;;4226873;28;20060;-62
2023/01/13 06:57:59;;;;;;;46.10;21.37;;;4.70;99.90;;;;;;4228079;28;20056;-62
2023/01/13 07:00:00;;;;;;;38.63;21.50;;;4.70;99.90;;;;;;4226850;28;20023;-61
2023/01/13 07:02:02;;;;;;;39.47;22.23;;;4.70;99.90;;;;;;4227943;28;20047;-62
2023/01/13 07:04:03;;;;;;;37.60;20.53;;;4.70;99.90;;;;;;4226909;28;20069;-62
2023/01/13 07:06:05;;;;;;;39.73;22.23;;;4.70;99.90;;;;;;4227498;28;20031;-63
2023/01/13 07:08:07;;;;;;;47.40;23.67;;;4.60;99.90;;;;;;4227256;28;20068;-64
2023/01/13 07:10:11;;;;;;;48.87;22.87;;;4.60;99.90;;;;;;4227113;28;20100;-63
2023/01/13 07:12:12;;;;;;;45.53;23.30;;;4.60;99.90;;;;;;4227413;28;20065;-64
2023/01/13 07:16:33;;;;;;;54.05;27.05;;;4.60;99.90;;;;;;4227903;28;20426;-66
2023/01/13 07:18:35;;;;;;;62.50;32.37;;;4.60;99.90;;;;;;4227043;28;20488;-64
2023/01/13 07:20:36;;;;;;;62.97;30.67;;;4.60;99.90;;;;;;4227484;28;20039;-63
2023/01/13 07:22:37;;;;;;;53.37;28.23;;;4.60;99.90;;;;;;4226587;28;20023;-64
2023/01/13 07:24:39;;;;;;;58.07;29.33;;;4.60;99.90;;;;;;4227843;28;20044;-64
2023/01/13 07:26:40;;;;;;;66.93;30.60;;;4.60;99.90;;;;;;4228311;28;20521;-64
2023/01/13 07:28:41;;;;;;;64.30;29.73;;;4.70;99.90;;;;;;4231621;28;20085;-66
2023/01/13 07:30:43;;;;;;;63.30;30.83;;;4.70;99.90;;;;;;4230059;28;20164;-65
2023/01/13 07:32:44;;;;;;;60.40;30.17;;;4.70;99.90;;;;;;4231103;28;20036;-63
2023/01/13 07:34:45;;;;;;;57.87;31.00;;;4.70;99.90;;;;;;4229831;28;20055;-65
2023/01/13 07:36:46;;;;;;;52.87;26.63;;;4.70;99.90;;;;;;4230781;28;20036;-69
2023/01/13 07:38:47;;;;;;;48.03;24.20;;;4.70;99.90;;;;;;4229750;28;20028;-68
2023/01/13 07:40:48;;;;;;;49.27;26.47;;;4.70;99.90;;;;;;4231005;28;20093;-63
2023/01/13 07:45:10;;;;;;;49.27;25.73;;;4.70;99.90;;;;;;4231028;28;20425;-63
2023/01/13 07:47:11;;;;;;;70.30;33.00;;;4.70;99.90;;;;;;4230240;28;20244;-63
2023/01/13 07:49:13;;;;;;;70.47;34.30;;;4.80;99.90;;;;;;4230513;28;20024;-63
2023/01/13 07:51:14;;;;;;;54.83;27.43;;;4.90;99.90;;;;;;4230659;28;20437;-65
2023/01/13 07:53:15;;;;;;;56.03;28.40;;;4.90;99.90;;;;;;4229846;28;20089;-65
2023/01/13 07:55:16;;;;;;;51.67;26.57;;;4.90;99.90;;;;;;4230894;28;20040;-64
2023/01/13 07:57:17;;;;;;;49.23;25.50;;;5.00;99.90;;;;;;4229550;28;20032;-63
2023/01/13 07:59:18;;;;;;;47.00;23.53;;;5.00;99.90;;;;;;4231141;28;20043;-65
2023/01/13 08:01:20;;;;;;;45.50;26.03;;;5.00;99.90;;;;;;4229576;28;20524;-62
2023/01/13 08:03:22;;;;;;;44.73;24.43;;;5.00;99.90;;;;;;4230576;28;20092;-62
2023/01/13 08:05:23;;;;;;;45.50;24.77;;;5.10;99.90;;;;;;4229117;28;20110;-63
2023/01/13 08:07:24;;;;;;;46.87;25.33;;;5.00;99.90;;;;;;4230586;28;20043;-64
2023/01/13 08:09:26;;;;;;;44.90;24.37;;;5.10;99.90;;;;;;4229420;28;20088;-62
2023/01/13 08:11:27;;;;;;;54.07;27.10;;;5.10;99.90;;;;;;4230528;28;20023;-63
2023/01/13 08:13:28;;;;;;;47.77;24.20;;;5.20;99.90;;;;;;4229289;28;20028;-63
2023/01/13 08:15:33;;;;;;;43.33;23.53;;;5.20;99.90;;;;;;4230035;28;20028;-64
2023/01/13 08:17:35;;;;;;;44.20;23.07;;;5.10;99.90;;;;;;4229279;28;20108;-62
2023/01/13 08:19:36;;;;;;;45.30;23.50;;;5.10;99.90;;;;;;4229922;28;20036;-63
2023/01/13 08:21:37;;;;;;;43.20;22.50;;;5.20;99.90;;;;;;4229741;28;20023;-62
2023/01/13 08:23:40;;;;;;;45.43;23.50;;;5.20;99.90;;;;;;4229446;28;20554;-67
2023/01/13 08:25:41;;;;;;;38.77;21.83;;;5.30;99.90;;;;;;4229908;28;20035;-64
2023/01/13 08:27:42;;;;;;;46.87;24.67;;;5.40;99.90;;;;;;4229119;28;20088;-62
2023/01/13 08:29:43;;;;;;;53.17;25.23;;;5.40;99.90;;;;;;4229187;28;20031;-62
2023/01/13 08:31:44;;;;;;;48.17;23.77;;;5.40;99.90;;;;;;4229025;28;20024;-68
2023/01/13 08:33:45;;;;;;;42.07;23.77;;;5.40;99.90;;;;;;4228491;28;20032;-63
2023/01/13 08:35:47;;;;;;;54.33;25.63;;;5.50;99.90;;;;;;4229048;28;20031;-63
2023/01/13 08:37:49;;;;;;;43.60;22.70;;;5.50;99.90;;;;;;4229385;28;20140;-63
2023/01/13 08:39:50;;;;;;;50.77;25.57;;;5.50;99.90;;;;;;4228440;28;20092;-63
2023/01/13 08:41:54;;;;;;;47.13;24.53;;;5.50;99.90;;;;;;4230290;28;20425;-65
2023/01/13 08:43:55;;;;;;;45.07;26.43;;;5.60;99.90;;;;;;4228857;28;20031;-63
2023/01/13 08:45:59;;;;;;;46.47;24.27;;;5.50;99.90;;;;;;4229957;28;20020;-64
2023/01/13 08:48:00;;;;;;;52.37;26.53;;;5.50;99.90;;;;;;4229007;28;20475;-65
2023/01/13 08:50:01;;;;;;;50.70;25.27;;;5.50;99.90;;;;;;4229236;28;20096;-66
2023/01/13 08:52:03;;;;;;;54.23;28.17;;;5.50;99.90;;;;;;4229166;28;20418;-64
2023/01/13 08:54:04;;;;;;;57.87;31.60;;;5.60;99.90;;;;;;4229102;28;20036;-64
2023/01/13 08:56:10;;;;;;;73.17;34.53;;;5.50;99.90;;;;;;4228920;28;20103;-63
2023/01/13 08:58:11;;;;;;;81.47;38.13;;;5.50;99.90;;;;;;4228937;28;20019;-64
2023/01/13 09:00:13;;;;;;;65.10;35.10;;;5.60;99.90;;;;;;4229508;28;20039;-62
2023/01/13 09:02:17;;;;;;;71.00;36.93;;;5.60;99.90;;;;;;4228592;28;20031;-63
2023/01/13 09:04:22;;;;;;;93.17;42.90;;;5.60;99.90;;;;;;4229406;28;20028;-62
2023/01/13 09:06:23;;;;;;;54.33;30.20;;;5.60;99.90;;;;;;4228510;28;20035;-63
2023/01/13 09:08:24;;;;;;;61.17;30.07;;;5.70;99.90;;;;;;4229439;28;20101;-63
2023/01/13 09:10:25;;;;;;;62.67;29.43;;;5.80;99.90;;;;;;4228249;28;20036;-65
2023/01/13 09:14:47;;;;;;;50.28;27.42;;;5.80;99.90;;;;;;4227891;28;20089;-63
2023/01/13 09:16:48;;;;;;;57.60;30.43;;;5.90;99.90;;;;;;4229461;28;20483;-63
2023/01/13 09:18:49;;;;;;;57.40;30.17;;;5.90;99.90;;;;;;4227595;28;20032;-63
2023/01/13 09:20:50;;;;;;;55.50;25.50;;;6.10;99.90;;;;;;4229174;28;20127;-62
2023/01/13 09:22:51;;;;;;;52.13;27.17;;;6.10;99.90;;;;;;4228066;28;20081;-63
2023/01/13 09:24:53;;;;;;;44.87;24.50;;;6.20;99.90;;;;;;4229070;28;20023;-62
2023/01/13 09:26:54;;;;;;;48.13;24.10;;;6.20;99.90;;;;;;4227594;28;20507;-63
2023/01/13 09:28:56;;;;;;;43.63;21.87;;;6.20;99.90;;;;;;4229468;28;20057;-63
2023/01/13 09:31:00;;;;;;;47.63;24.13;;;6.30;99.90;;;;;;4228258;28;20027;-64
2023/01/13 09:35:20;;;;;;;40.37;21.03;;;6.50;99.90;;;;;;4228211;28;20117;-64
2023/01/13 09:37:22;;;;;;;40.87;23.23;;;6.70;99.90;;;;;;4228656;28;20449;-63
2023/01/13 09:39:23;;;;;;;41.50;21.30;;;6.60;99.90;;;;;;4228525;28;20484;-63
2023/01/13 09:43:55;;;;;;;37.73;20.13;;;6.50;99.90;;;;;;4228467;28;20091;-62
2023/01/13 09:48:50;;;;;;;28.33;18.03;;;6.50;99.90;;;;;;4227767;28;20089;-62
2023/01/13 09:51:15;;;;;;;;;;;6.60;99.90;;;;;;4228916;28;20471;-64
2023/01/13 09:53:33;;;;;;;37.40;18.93;;;6.60;99.90;;;;;;4227519;28;19949;-67
2023/01/13 09:55:35;;;;;;;34.93;20.13;;;6.70;99.90;;;;;;4228631;28;20039;-62
2023/01/13 09:57:38;;;;;;;29.53;17.10;;;6.70;99.90;;;;;;4227498;28;20073;-67
2023/01/13 09:59:40;;;;;;;17.17;10.67;;;6.80;99.90;;;;;;4228726;28;20044;-63
2023/01/13 10:01:53;;;;;;;20.87;11.80;;;6.80;99.90;;;;;;4226966;28;20032;-63
2023/01/13 10:03:54;;;;;;;19.23;11.43;;;6.70;99.90;;;;;;4228550;28;20039;-66
2023/01/13 10:06:14;;;;;;;23.83;12.40;;;6.70;99.90;;;;;;4227724;28;20027;-63
2023/01/13 10:08:31;;;;;;;24.20;12.90;;;6.70;99.90;;;;;;4228574;28;20101;-66
2023/01/13 10:10:52;;;;;;;20.37;11.83;;;6.60;99.90;;;;;;4227428;28;20035;-62
2023/01/13 10:15:18;;;;;;;23.23;12.10;;;6.60;99.90;;;;;;4227403;28;20097;-62
2023/01/13 10:17:43;;;;;;;22.97;12.27;;;6.70;99.90;;;;;;4228104;28;20155;-63
2023/01/13 10:20:01;;;;;;;25.77;14.87;;;6.70;99.90;;;;;;4226848;28;20076;-66
2023/01/13 10:22:25;;;;;;;24.47;14.30;;;6.80;99.90;;;;;;4226593;28;20442;-65
2023/01/13 10:24:35;;;;;;;27.63;14.53;;;6.80;99.90;;;;;;4226876;28;20032;-64
2023/01/13 10:26:48;;;;;;;26.80;15.53;;;7.00;99.90;;;;;;4227920;28;20123;-62
2023/01/13 10:28:58;;;;;;;30.93;15.60;;;7.00;99.90;;;;;;4226879;28;20042;-62
2023/01/13 10:30:59;;;;;;;31.83;17.95;;;7.00;99.90;;;;;;4228129;28;20031;-63
2023/01/13 10:33:13;;;;;;;30.57;16.90;;;6.90;99.90;;;;;;4226792;28;20039;-64
2023/01/13 10:35:14;;;;;;;34.87;15.77;;;7.00;99.90;;;;;;4227384;28;20043;-62
2023/01/13 10:37:27;;;;;;;28.20;15.40;;;7.00;99.90;;;;;;4226842;28;20357;-63
2023/01/13 10:39:41;;;;;;;23.93;14.43;;;7.00;99.90;;;;;;4227450;28;20043;-68
2023/01/13 10:41:43;;;;;;;24.87;14.03;;;6.90;99.90;;;;;;4226439;28;20039;-62
2023/01/13 10:43:57;;;;;;;23.67;14.23;;;6.90;99.90;;;;;;4228310;28;20208;-65
2023/01/13 10:46:09;;;;;;;22.57;13.40;;;6.80;99.90;;;;;;4226716;28;20032;-62
2023/01/13 10:48:15;;;;;;;22.97;13.43;;;6.80;99.90;;;;;;4227580;28;20043;-65
2023/01/13 10:50:28;;;;;;;26.77;14.17;;;6.70;99.90;;;;;;4226596;28;20061;-64
2023/01/13 10:52:31;;;;;;;23.80;13.13;;;6.80;99.90;;;;;;4227734;28;20027;-64
2023/01/13 10:54:35;;;;;;;36.30;15.40;;;6.80;99.90;;;;;;4226371;28;20027;-64
2023/01/13 10:56:37;;;;;;;20.13;12.30;;;6.90;99.90;;;;;;4227571;28;20023;-68
2023/01/13 10:58:38;;;;;;;24.97;11.77;;;6.90;99.90;;;;;;4226197;28;20077;-65
2023/01/13 11:00:39;;;;;;;13.30;8.10;;;6.90;99.90;;;;;;4227461;28;20047;-63
2023/01/13 11:02:40;;;;;;;14.10;8.67;;;7.00;99.90;;;;;;4226670;28;20097;-63
2023/01/13 11:05:05;;;;;;;14.60;8.73;;;7.10;99.90;;;;;;4227193;28;20069;-64
2023/01/13 11:07:40;;;;;;;13.67;7.97;;;7.30;99.90;;;;;;4226510;28;20518;-62
2023/01/13 11:09:41;;;;;;;15.10;8.93;;;7.30;99.90;;;;;;4227511;28;20049;-64
2023/01/13 11:11:43;;;;;;;17.17;8.73;;;7.40;99.90;;;;;;4225847;28;20483;-65
2023/01/13 11:16:16;;;;;;;12.63;7.87;;;7.50;99.90;;;;;;4226314;28;20096;-63
2023/01/13 11:18:30;;;;;;;12.37;8.47;;;7.60;99.90;;;;;;4227623;28;20035;-65
2023/01/13 11:20:37;;;;;;;17.40;8.67;;;7.60;99.90;;;;;;4226116;28;20040;-65
2023/01/13 11:22:46;;;;;;;18.27;9.10;;;7.70;99.90;;;;;;4227637;28;20466;-66
2023/01/13 11:25:00;;;;;;;16.37;8.67;;;7.70;99.90;;;;;;4226182;28;20032;-64